Airfield :
LOGIN :

Register | Disclaimer

   EN    FR    IT 

 










Legend :    VFR   Marginal VFR   IFR   Intensive IFR   Very Intensive IFR
Visi :
Ceiling :
>= 8 km
>= 3000ft
5 to 8 km
1000 to 3000 ft
1500m to 5 km
500 to 1000 ft
800 to 1500m
200 to 500 ft
< 800m
< 200 ft
Symbols :   Thunderstorms  Fog  Heavy snow  Heavy precipitations  Wind > 20 kt
SIGMETs :     Misc.  Thunderstorms  Icing  Turbulence  Mountain Waves  Volcanic Ashes







- Airport Elevation : 30 ft
- IATA code : CFN


EIDL - Donegal

EXPIRED METARs :
  • 241430Z 26019KT 9999 FEW024 BKN039 OVC046 13/06 Q1010
  • 241400Z 26017KT 9999 FEW024 OVC044 13/07 Q1010
  • 241330Z 27022KT 9999 FEW024 BKN042 13/07 Q1011
  • 241300Z 27019KT 9999 FEW030 OVC038 14/07 Q1011
  • 241230Z 26021KT 9999 FEW028 OVC039 14/07 Q1011
  • 241200Z 26019KT 9999 FEW032 OVC044 14/07 Q1011

Expired Forecast.
No reported NOTAMs for that airfield.



MET'MAP, your aeronautical weather chart ! - Copyright ORBIFLY December 2007 - Disclaimer

ORBIFLY MET'MAP TEAM :

Programming & Development : Alexandra Zaïnal
Concept & Development : Baudouin d'Aumeries
Co-Development & Prog : Marc-Olivier Méhu
Technical & hardware support : Manuel Goepfert

Contact : metmap@orbifly.com




SOURCES & CREDITS :

   NOAA